George Allen — WDF9749 — position and weather

sailwx.info

Track history (hours):
 
Tides and Currents Weather Stations Pressure Air Temp Water Temp Dewpoint Dewpoint Depression Visibility Wind Speed Wind Dir Waves Ship Positions

George Allen

Owner: Blessey Enterprises, Inc., Harahan, LA. More information available from US FCC via Universal Licensing System and Coast Guard Vessel Documentation Center.

Last reported at 2016-May-22 05:24 UTC. Time now 2016-May-27 04:35 UTC.
Position N 29°55' W 093°53'.

Length 23 m.

Type: Towing. MMSI: 367508440.

Date/timePositionNaut miles runAvg speedWind from/ knotsBaromVisibWave heightAir tempDewpointWater temp
2016-May-22 05:24N 29°55' W 093°53'7 6.2
2016-May-22 04:15N 29°60' W 093°46'5 6.8
2016-May-22 03:33N 30°03' W 093°43'6 5.6
2016-May-22 02:33N 30°04' W 093°36'5 4.6
2016-May-22 01:33N 30°04' W 093°31'4 4.5
2016-May-22 00:33N 30°04' W 093°26'4 4.0
2016-May-21 23:33N 30°04' W 093°21'4 3.6
2016-May-21 22:33N 30°07' W 093°20'6 6.2
2016-May-21 21:34N 30°12' W 093°16'2 1.7
2016-May-21 20:34N 30°14' W 093°15'0 0.0
2016-May-21 19:33N 30°14' W 093°15'0 0.0
2016-May-21 18:34N 30°14' W 093°15'0 0.0
2016-May-21 17:33N 30°14' W 093°15'0 0.0
2016-May-21 16:33N 30°14' W 093°15'0 0.0
2016-May-21 15:33N 30°14' W 093°15'0 0.0
2016-May-21 14:33N 30°14' W 093°15'0 0.0
2016-May-21 13:33N 30°14' W 093°15'0 0.0
2016-May-21 12:33N 30°14' W 093°15'0 0.0
2016-May-21 11:33N 30°14' W 093°15'0 0.0
2016-May-21 10:33N 30°14' W 093°15'0 0.0
2016-May-21 09:34N 30°14' W 093°15'0 0.0
2016-May-21 08:33N 30°14' W 093°15'0 0.0
2016-May-21 07:33N 30°14' W 093°15'0 0.0
2016-May-21 06:33N 30°14' W 093°15'0 0.0
2016-May-21 05:33N 30°14' W 093°15'0 0.0
2016-May-21 04:33N 30°14' W 093°15'0 0.0
2016-May-21 03:33N 30°14' W 093°15'0 0.0
2016-May-21 02:33N 30°14' W 093°15'0 0.0
2016-May-21 01:33N 30°14' W 093°15'0 0.0
2016-May-21 00:33N 30°14' W 093°15'0 0.0
2016-May-20 23:33N 30°14' W 093°15'0 0.0
2016-May-20 22:33N 30°14' W 093°15'5 4.7
2016-May-20 21:33N 30°10' W 093°19'6 5.9
2016-May-20 20:33N 30°05' W 093°20'6 5.7
2016-May-20 19:33N 30°04' W 093°27'7 6.8
2016-May-20 18:33N 30°04' W 093°35'7 6.8
2016-May-20 17:33N 30°03' W 093°43'9 6.4
2016-May-20 16:05N 29°58' W 093°52'0 0.0
2016-May-20 14:33N 29°58' W 093°52'1 1.4
2016-May-20 13:33N 29°59' W 093°53'0 0.0
2016-May-20 12:31N 29°59' W 093°53'0 0.0
2016-May-20 11:33N 29°59' W 093°53'0 0.0
2016-May-20 06:33N 29°59' W 093°53'0 0.0
2016-May-20 01:19N 29°59' W 093°53'0 0.0
2016-May-20 00:32N 29°59' W 093°53'0 0.0
2016-May-19 10:19N 29°59' W 093°53'1 0.1
2016-May-18 16:32N 29°58' W 093°51'1 1.0
2016-May-18 15:31N 29°59' W 093°52'2 2.1
2016-May-18 14:30N 29°60' W 093°55'0 0.0
2016-May-18 12:19N 29°60' W 093°55'0 0.0
2016-May-18 11:27N 29°60' W 093°55'0 0.0
2016-May-18 10:33N 29°60' W 093°55'0 0.0
2016-May-18 09:17N 29°60' W 093°55'0 0.0
2016-May-18 08:25N 29°60' W 093°55'0 0.0
2016-May-18 07:21N 29°60' W 093°55'0 0.0
2016-May-18 06:33N 29°60' W 093°55'0 0.0
2016-May-18 05:27N 29°60' W 093°55'0 0.0
2016-May-18 04:20N 29°60' W 093°55'1 1.0
2016-May-18 03:33N 29°59' W 093°54'3 2.7
2016-May-18 02:30N 29°58' W 093°51'64 3.4
2016-May-17 07:33N 29°37' W 095°01'0 0.0
2016-May-17 06:31N 29°37' W 095°01'0 0.0
2016-May-17 05:33N 29°37' W 095°01'0 0.0
2016-May-17 02:33N 29°37' W 095°01'0 0.0
2016-May-16 20:33N 29°37' W 095°01'0 0.1
2016-May-16 19:33N 29°37' W 095°01'0 0.2
2016-May-16 18:33N 29°37' W 095°01'0 0.0
2016-May-16 17:33N 29°37' W 095°01'0 0.0
2016-May-16 06:31N 29°37' W 095°01'0 0.0
2016-May-16 05:34N 29°37' W 095°01'0 0.2
2016-May-16 04:34N 29°37' W 095°01'0 0.2
2016-May-16 03:33N 29°37' W 095°01'0 0.0
2016-May-16 02:33N 29°37' W 095°01'0 0.2
2016-May-16 01:33N 29°37' W 095°01'0 0.0
2016-May-16 00:34N 29°37' W 095°01'0 0.0
2016-May-15 23:34N 29°37' W 095°01'0 0.0
2016-May-15 22:33N 29°37' W 095°01'0 0.0
2016-May-15 21:33N 29°37' W 095°01'0 0.0
2016-May-15 20:33N 29°37' W 095°01'0 0.0
2016-May-15 19:33N 29°37' W 095°01'0 0.0
2016-May-15 18:33N 29°37' W 095°01'0 0.0
2016-May-15 17:33N 29°37' W 095°01'0 0.0
2016-May-15 16:33N 29°37' W 095°01'0 0.0
2016-May-15 15:33N 29°37' W 095°01'0 0.0
2016-May-15 14:33N 29°37' W 095°01'0 0.0
2016-May-15 12:33N 29°37' W 095°01'0 0.2
2016-May-15 11:33N 29°37' W 095°01'0 0.0
2016-May-15 10:33N 29°37' W 095°01'0 0.0
2016-May-15 09:34N 29°37' W 095°01'0 0.0
2016-May-15 08:34N 29°37' W 095°01'0 0.0
2016-May-15 07:34N 29°37' W 095°01'0 0.2
2016-May-15 06:34N 29°37' W 095°01'0 0.4
2016-May-15 05:33N 29°37' W 095°01'5 4.8
2016-May-15 04:32N 29°41' W 094°59'7 6.1
2016-May-15 03:24N 29°47' W 095°05'0 0.0
2016-May-15 02:33N 29°47' W 095°05'0 0.0
2016-May-15 01:31N 29°47' W 095°05'1 0.7
2016-May-15 00:34N 29°47' W 095°04'1 0.1
2016-May-14 16:29N 29°47' W 095°05'0 0.2
2016-May-14 15:27N 29°47' W 095°05'0 0.0
2016-May-14 14:32N 29°47' W 095°05'3 0.9
2016-May-14 11:26N 29°45' W 095°06'0 0.0
2016-May-14 10:31N 29°45' W 095°06'3 2.7
2016-May-14 09:28N 29°47' W 095°04'0 0.3
2016-May-14 08:33N 29°47' W 095°05'0 0.1
2016-May-14 07:33N 29°47' W 095°05'2 1.7
2016-May-14 06:17N 29°46' W 095°06'0 0.0
2016-May-14 05:28N 29°46' W 095°06'0 0.1
2016-May-14 04:32N 29°46' W 095°06'2 1.3
2016-May-14 03:20N 29°46' W 095°05'5 5.7
2016-May-14 02:33N 29°43' W 095°01'7 6.7
2016-May-14 01:33N 29°37' W 094°57'8 7.6
2016-May-14 00:33N 29°31' W 094°53'8 7.4
2016-May-13 23:29N 29°24' W 094°49'4 0.2
2016-May-13 04:11N 29°22' W 094°53'0 0.0
2016-May-13 03:34N 29°22' W 094°53'0 0.0
2016-May-13 02:33N 29°22' W 094°53'0 0.0
2016-May-13 01:20N 29°22' W 094°53'  
Track history (hours):
 
Tides and Currents Weather Stations Pressure Air Temp Water Temp Dewpoint Dewpoint Depression Visibility Wind Speed Wind Dir Waves Ship Positions

George Allen

Owner: Blessey Enterprises, Inc., Harahan, LA. More information available from US FCC via Universal Licensing System and Coast Guard Vessel Documentation Center.

Last reported at 2016-May-22 05:24 UTC. Time now 2016-May-27 04:35 UTC.
Position N 29°55' W 093°53'.

Length 23 m.

Type: Towing. MMSI: 367508440.

Date/timePositionNaut miles runAvg speedWind from/ knotsBaromVisibWave heightAir tempDewpointWater temp
2016-May-22 05:24N 29°55' W 093°53'7 6.2
2016-May-22 04:15N 29°60' W 093°46'5 6.8
2016-May-22 03:33N 30°03' W 093°43'6 5.6
2016-May-22 02:33N 30°04' W 093°36'5 4.6
2016-May-22 01:33N 30°04' W 093°31'4 4.5
2016-May-22 00:33N 30°04' W 093°26'4 4.0
2016-May-21 23:33N 30°04' W 093°21'4 3.6
2016-May-21 22:33N 30°07' W 093°20'6 6.2
2016-May-21 21:34N 30°12' W 093°16'2 1.7
2016-May-21 20:34N 30°14' W 093°15'0 0.0
2016-May-21 19:33N 30°14' W 093°15'0 0.0
2016-May-21 18:34N 30°14' W 093°15'0 0.0
2016-May-21 17:33N 30°14' W 093°15'0 0.0
2016-May-21 16:33N 30°14' W 093°15'0 0.0
2016-May-21 15:33N 30°14' W 093°15'0 0.0
2016-May-21 14:33N 30°14' W 093°15'0 0.0
2016-May-21 13:33N 30°14' W 093°15'0 0.0
2016-May-21 12:33N 30°14' W 093°15'0 0.0
2016-May-21 11:33N 30°14' W 093°15'0 0.0
2016-May-21 10:33N 30°14' W 093°15'0 0.0
2016-May-21 09:34N 30°14' W 093°15'0 0.0
2016-May-21 08:33N 30°14' W 093°15'0 0.0
2016-May-21 07:33N 30°14' W 093°15'0 0.0
2016-May-21 06:33N 30°14' W 093°15'0 0.0
2016-May-21 05:33N 30°14' W 093°15'0 0.0
2016-May-21 04:33N 30°14' W 093°15'0 0.0
2016-May-21 03:33N 30°14' W 093°15'0 0.0
2016-May-21 02:33N 30°14' W 093°15'0 0.0
2016-May-21 01:33N 30°14' W 093°15'0 0.0
2016-May-21 00:33N 30°14' W 093°15'0 0.0
2016-May-20 23:33N 30°14' W 093°15'0 0.0
2016-May-20 22:33N 30°14' W 093°15'5 4.7
2016-May-20 21:33N 30°10' W 093°19'6 5.9
2016-May-20 20:33N 30°05' W 093°20'6 5.7
2016-May-20 19:33N 30°04' W 093°27'7 6.8
2016-May-20 18:33N 30°04' W 093°35'7 6.8
2016-May-20 17:33N 30°03' W 093°43'9 6.4
2016-May-20 16:05N 29°58' W 093°52'0 0.0
2016-May-20 14:33N 29°58' W 093°52'1 1.4
2016-May-20 13:33N 29°59' W 093°53'0 0.0
2016-May-20 12:31N 29°59' W 093°53'0 0.0
2016-May-20 11:33N 29°59' W 093°53'0 0.0
2016-May-20 06:33N 29°59' W 093°53'0 0.0
2016-May-20 01:19N 29°59' W 093°53'0 0.0
2016-May-20 00:32N 29°59' W 093°53'0 0.0
2016-May-19 10:19N 29°59' W 093°53'1 0.1
2016-May-18 16:32N 29°58' W 093°51'1 1.0
2016-May-18 15:31N 29°59' W 093°52'2 2.1
2016-May-18 14:30N 29°60' W 093°55'0 0.0
2016-May-18 12:19N 29°60' W 093°55'0 0.0
2016-May-18 11:27N 29°60' W 093°55'0 0.0
2016-May-18 10:33N 29°60' W 093°55'0 0.0
2016-May-18 09:17N 29°60' W 093°55'0 0.0
2016-May-18 08:25N 29°60' W 093°55'0 0.0
2016-May-18 07:21N 29°60' W 093°55'0 0.0
2016-May-18 06:33N 29°60' W 093°55'0 0.0
2016-May-18 05:27N 29°60' W 093°55'0 0.0
2016-May-18 04:20N 29°60' W 093°55'1 1.0
2016-May-18 03:33N 29°59' W 093°54'3 2.7
2016-May-18 02:30N 29°58' W 093°51'64 3.4
2016-May-17 07:33N 29°37' W 095°01'0 0.0
2016-May-17 06:31N 29°37' W 095°01'0 0.0
2016-May-17 05:33N 29°37' W 095°01'0 0.0
2016-May-17 02:33N 29°37' W 095°01'0 0.0
2016-May-16 20:33N 29°37' W 095°01'0 0.1
2016-May-16 19:33N 29°37' W 095°01'0 0.2
2016-May-16 18:33N 29°37' W 095°01'0 0.0
2016-May-16 17:33N 29°37' W 095°01'0 0.0
2016-May-16 06:31N 29°37' W 095°01'0 0.0
2016-May-16 05:34N 29°37' W 095°01'0 0.2
2016-May-16 04:34N 29°37' W 095°01'0 0.2
2016-May-16 03:33N 29°37' W 095°01'0 0.0
2016-May-16 02:33N 29°37' W 095°01'0 0.2
2016-May-16 01:33N 29°37' W 095°01'0 0.0
2016-May-16 00:34N 29°37' W 095°01'0 0.0
2016-May-15 23:34N 29°37' W 095°01'0 0.0
2016-May-15 22:33N 29°37' W 095°01'0 0.0
2016-May-15 21:33N 29°37' W 095°01'0 0.0
2016-May-15 20:33N 29°37' W 095°01'0 0.0
2016-May-15 19:33N 29°37' W 095°01'0 0.0
2016-May-15 18:33N 29°37' W 095°01'0 0.0
2016-May-15 17:33N 29°37' W 095°01'0 0.0
2016-May-15 16:33N 29°37' W 095°01'0 0.0
2016-May-15 15:33N 29°37' W 095°01'0 0.0
2016-May-15 14:33N 29°37' W 095°01'0 0.0
2016-May-15 12:33N 29°37' W 095°01'0 0.2
2016-May-15 11:33N 29°37' W 095°01'0 0.0
2016-May-15 10:33N 29°37' W 095°01'0 0.0
2016-May-15 09:34N 29°37' W 095°01'0 0.0
2016-May-15 08:34N 29°37' W 095°01'0 0.0
2016-May-15 07:34N 29°37' W 095°01'0 0.2
2016-May-15 06:34N 29°37' W 095°01'0 0.4
2016-May-15 05:33N 29°37' W 095°01'5 4.8
2016-May-15 04:32N 29°41' W 094°59'7 6.1
2016-May-15 03:24N 29°47' W 095°05'0 0.0
2016-May-15 02:33N 29°47' W 095°05'0 0.0
2016-May-15 01:31N 29°47' W 095°05'1 0.7
2016-May-15 00:34N 29°47' W 095°04'1 0.1
2016-May-14 16:29N 29°47' W 095°05'0 0.2
2016-May-14 15:27N 29°47' W 095°05'0 0.0
2016-May-14 14:32N 29°47' W 095°05'3 0.9
2016-May-14 11:26N 29°45' W 095°06'0 0.0
2016-May-14 10:31N 29°45' W 095°06'3 2.7
2016-May-14 09:28N 29°47' W 095°04'0 0.3
2016-May-14 08:33N 29°47' W 095°05'0 0.1
2016-May-14 07:33N 29°47' W 095°05'2 1.7
2016-May-14 06:17N 29°46' W 095°06'0 0.0
2016-May-14 05:28N 29°46' W 095°06'0 0.1
2016-May-14 04:32N 29°46' W 095°06'2 1.3
2016-May-14 03:20N 29°46' W 095°05'5 5.7
2016-May-14 02:33N 29°43' W 095°01'7 6.7
2016-May-14 01:33N 29°37' W 094°57'8 7.6
2016-May-14 00:33N 29°31' W 094°53'8 7.4
2016-May-13 23:29N 29°24' W 094°49'4 0.2
2016-May-13 04:11N 29°22' W 094°53'0 0.0
2016-May-13 03:34N 29°22' W 094°53'0 0.0
2016-May-13 02:33N 29°22' W 094°53'0 0.0
2016-May-13 01:20N 29°22' W 094°53'  

Dump ship's entire track history